Terminal Aerodrome Forecast
Issued by NWS Boise, ID

Home | Current Version | Previous Version | Text Only | Print | Product List | Glossary On
Versions: 1 2 3 4 5 6 7 8 9 10 11 12 13 14 15 16 17 18 19 20 21 22 23 24 25 26 27 28 29 30 31 32 33 34 35 36 37
000
FTUS45 KBOI 061138
TAFBOI
TAF
KBOI 061138Z 0612/0712 30007KT P6SM SCT100 BKN200
     FM061600 30010KT P6SM VCSH SCT060 BKN100
     FM062000 30010G20KT P6SM -TSRA SCT060CB OVC100
     FM070200 VRB06KT P6SM -SHRA BKN060 OVC100 PROB30 0702/0706
      -TSRA OVC050CB
     FM070600 VRB06KT P6SM SCT060 BKN100=

USA.gov is the U.S. government's official web portal to all federal, state and local government web resources and services.